createdAt,value
2022-08-18T00:00:46.298Z,20.20
2022-08-18T00:02:46.499Z,20.27
2022-08-18T00:05:00.685Z,20.16
2022-08-18T00:07:00.290Z,20.26
2022-08-18T00:09:00.286Z,20.33
2022-08-18T00:10:58.780Z,20.36
2022-08-18T00:13:01.200Z,20.38
2022-08-18T00:15:04.587Z,20.35
2022-08-18T00:17:03.137Z,20.34
2022-08-18T00:19:03.700Z,20.32
2022-08-18T00:21:07.583Z,20.20
2022-08-18T00:23:06.195Z,20.10
2022-08-18T00:25:05.403Z,20.12
2022-08-18T00:27:03.614Z,20.07
2022-08-18T00:29:02.035Z,20.08
2022-08-18T00:31:00.425Z,20.06
2022-08-18T00:33:00.305Z,20.02
2022-08-18T00:34:58.613Z,20.01
2022-08-18T00:36:58.127Z,20.05
2022-08-18T00:38:56.474Z,20.03
2022-08-18T00:40:56.747Z,20.00
2022-08-18T00:42:58.217Z,19.88
2022-08-18T00:44:57.444Z,19.84
2022-08-18T00:46:55.659Z,19.89
2022-08-18T00:48:54.090Z,19.88
2022-08-18T00:50:56.860Z,19.88
2022-08-18T00:53:00.383Z,19.71
2022-08-18T00:54:59.600Z,19.73
2022-08-18T00:57:03.198Z,19.83
2022-08-18T00:59:05.414Z,19.80
2022-08-18T01:01:06.054Z,19.80
2022-08-18T01:03:12.342Z,19.67
2022-08-18T01:05:15.625Z,19.42
2022-08-18T01:07:20.549Z,19.48
2022-08-18T01:09:20.277Z,19.47
2022-08-18T01:11:18.481Z,19.44
2022-08-18T01:13:17.395Z,19.54
2022-08-18T01:15:29.089Z,19.61
2022-08-18T01:17:46.078Z,19.64
2022-08-18T01:20:02.030Z,19.63
2022-08-18T01:22:06.302Z,19.52
2022-08-18T01:24:09.509Z,19.54
2022-08-18T01:26:09.436Z,19.52
2022-08-18T01:28:08.149Z,19.43
2022-08-18T01:30:10.553Z,19.38
2022-08-18T01:32:08.893Z,19.32
2022-08-18T01:34:09.067Z,19.35
2022-08-18T01:36:12.904Z,19.48
2022-08-18T01:38:13.526Z,19.40
2022-08-18T01:41:17.242Z,19.38
2022-08-18T01:42:34.926Z,19.42
2022-08-18T01:44:33.689Z,19.48
2022-08-18T01:46:34.369Z,19.43
2022-08-18T01:48:34.417Z,19.43
2022-08-18T01:50:34.354Z,19.30
2022-08-18T01:52:34.222Z,19.26
2022-08-18T01:54:32.473Z,19.27
2022-08-18T01:56:32.765Z,19.20
2022-08-18T01:58:31.793Z,19.20
2022-08-18T02:00:32.352Z,19.17
2022-08-18T02:02:34.458Z,19.18
2022-08-18T02:04:37.087Z,19.22
2022-08-18T02:06:35.624Z,19.20
2022-08-18T02:08:33.988Z,19.17
2022-08-18T02:10:32.645Z,19.23
2022-08-18T02:12:32.286Z,19.24
2022-08-18T02:14:31.379Z,19.20
2022-08-18T02:16:30.172Z,19.20
2022-08-18T02:18:47.904Z,19.07
2022-08-18T02:20:48.101Z,18.92
2022-08-18T02:22:48.156Z,18.87
2022-08-18T02:24:47.099Z,18.95
2022-08-18T02:26:45.500Z,18.87
2022-08-18T02:28:45.310Z,18.98
2022-08-18T02:30:44.735Z,18.98
2022-08-18T02:32:43.343Z,19.04
2022-08-18T02:34:42.970Z,19.00
2022-08-18T02:36:41.302Z,19.00
2022-08-18T02:38:39.863Z,19.03
2022-08-18T02:40:40.665Z,18.98
2022-08-18T02:42:39.299Z,18.92
2022-08-18T02:44:38.901Z,19.02
2022-08-18T02:46:37.674Z,19.00
2022-08-18T02:48:35.984Z,19.08
2022-08-18T02:50:34.303Z,19.10
2022-08-18T02:52:33.023Z,19.05
2022-08-18T02:54:31.309Z,19.05
2022-08-18T02:56:41.679Z,18.97
2022-08-18T02:58:40.610Z,18.94
2022-08-18T03:00:40.426Z,18.88
2022-08-18T03:02:38.915Z,18.81
2022-08-18T03:04:38.127Z,18.81
2022-08-18T03:06:39.361Z,18.79
2022-08-18T03:08:37.716Z,18.72
2022-08-18T03:10:36.028Z,18.67
2022-08-18T03:12:34.208Z,18.64
2022-08-18T03:14:32.555Z,18.60
2022-08-18T03:16:33.344Z,18.57
2022-08-18T03:18:31.663Z,18.51
2022-08-18T03:20:31.118Z,18.49
2022-08-18T03:22:29.779Z,18.42
2022-08-18T03:24:31.758Z,18.36
2022-08-18T03:26:31.559Z,18.35
2022-08-18T03:28:29.939Z,18.47
2022-08-18T03:30:28.396Z,18.48
2022-08-18T03:32:28.135Z,18.46
2022-08-18T03:34:26.357Z,18.42
2022-08-18T03:36:27.108Z,18.45
2022-08-18T03:38:25.444Z,18.41
2022-08-18T03:40:23.735Z,18.41
2022-08-18T03:42:21.939Z,18.41
2022-08-18T03:44:20.206Z,18.39
2022-08-18T03:46:20.196Z,18.39
2022-08-18T03:48:19.876Z,18.39
2022-08-18T03:50:18.854Z,18.44
2022-08-18T03:52:17.439Z,18.49
2022-08-18T03:54:17.707Z,18.51
2022-08-18T03:56:19.304Z,18.53
2022-08-18T03:58:17.620Z,18.60
2022-08-18T04:00:16.207Z,18.75
2022-08-18T04:02:14.595Z,18.98
2022-08-18T04:04:17.551Z,19.02
2022-08-18T04:06:17.435Z,19.30
2022-08-18T04:08:30.290Z,19.64
2022-08-18T04:10:28.526Z,20.03
2022-08-18T04:12:26.856Z,20.29
2022-08-18T04:14:29.249Z,20.29
2022-08-18T04:16:28.326Z,20.26
2022-08-18T04:18:26.449Z,20.35
2022-08-18T04:20:26.157Z,20.15
2022-08-18T04:22:26.535Z,20.69
2022-08-18T04:24:26.527Z,20.73
2022-08-18T04:26:26.662Z,21.03
2022-08-18T04:28:25.036Z,20.98
2022-08-18T04:30:23.664Z,21.33
2022-08-18T04:32:21.963Z,21.52
2022-08-18T04:34:28.217Z,21.75
2022-08-18T04:36:29.994Z,22.00
2022-08-18T04:38:28.244Z,22.27
2022-08-18T04:40:27.382Z,22.16
2022-08-18T04:42:25.681Z,22.67
2022-08-18T04:44:23.914Z,23.05
2022-08-18T04:46:24.013Z,23.49
2022-08-18T04:48:22.906Z,24.04
2022-08-18T04:50:21.200Z,24.22
2022-08-18T04:52:41.760Z,24.85
2022-08-18T04:54:41.653Z,25.39
2022-08-18T04:56:40.752Z,25.71
2022-08-18T04:58:39.037Z,25.56
2022-08-18T05:00:37.345Z,25.59
2022-08-18T05:02:35.769Z,25.57
2022-08-18T05:04:34.888Z,25.44
2022-08-18T05:06:34.993Z,25.47
2022-08-18T05:08:34.656Z,24.86
2022-08-18T05:10:32.916Z,24.76
2022-08-18T05:12:31.442Z,25.07
2022-08-18T05:14:29.790Z,24.72
2022-08-18T05:16:29.442Z,24.40
2022-08-18T05:18:28.673Z,24.27
2022-08-18T05:20:26.933Z,24.60
2022-08-18T05:22:28.381Z,24.37
2022-08-18T05:24:37.343Z,24.22
2022-08-18T05:26:36.856Z,24.54
2022-08-18T05:28:37.566Z,24.47
2022-08-18T05:30:36.948Z,24.36
2022-08-18T05:32:48.671Z,24.43
2022-08-18T05:34:50.057Z,24.42
2022-08-18T05:36:59.582Z,24.32
2022-08-18T05:39:12.739Z,24.13
2022-08-18T05:41:16.322Z,24.21
2022-08-18T05:43:17.633Z,23.57
2022-08-18T05:45:19.516Z,24.09
2022-08-18T05:47:23.907Z,24.25
2022-08-18T05:49:23.782Z,24.04
2022-08-18T05:51:29.487Z,24.57
2022-08-18T05:53:50.573Z,24.09
2022-08-18T05:56:20.642Z,24.61
2022-08-18T05:58:23.779Z,25.03
2022-08-18T06:00:32.449Z,25.23
2022-08-18T06:02:35.906Z,25.24
2022-08-18T06:04:42.548Z,25.56
2022-08-18T06:06:46.940Z,25.72
2022-08-18T06:08:52.186Z,25.65
2022-08-18T06:10:52.063Z,25.49
2022-08-18T06:12:53.722Z,25.74
2022-08-18T06:14:59.220Z,25.40
2022-08-18T06:17:17.229Z,25.45
2022-08-18T06:19:33.899Z,25.57
2022-08-18T06:21:46.645Z,25.55
2022-08-18T06:23:57.304Z,25.34
2022-08-18T06:26:09.490Z,26.29
2022-08-18T06:28:13.396Z,26.86
2022-08-18T06:30:19.058Z,27.35
2022-08-18T06:32:44.690Z,26.98
2022-08-18T06:35:00.318Z,27.21
2022-08-18T06:37:08.213Z,27.04
2022-08-18T06:39:17.056Z,26.75
2022-08-18T06:41:40.793Z,26.10
2022-08-18T06:43:42.205Z,26.20
2022-08-18T06:45:44.969Z,26.23
2022-08-18T06:47:50.037Z,26.69
2022-08-18T06:49:54.993Z,26.52
2022-08-18T06:51:53.280Z,26.60
2022-08-18T06:53:54.169Z,26.87
2022-08-18T06:55:52.571Z,27.09
2022-08-18T06:57:56.198Z,27.67
2022-08-18T07:00:01.773Z,28.01
2022-08-18T07:02:11.717Z,28.10
2022-08-18T07:04:10.117Z,28.64
2022-08-18T07:06:11.593Z,29.02
2022-08-18T07:08:18.460Z,29.34
2022-08-18T07:10:32.251Z,29.56
2022-08-18T07:12:33.063Z,29.56
2022-08-18T07:14:32.623Z,29.07
2022-08-18T07:16:57.067Z,28.77
2022-08-18T07:18:54.118Z,28.90
2022-08-18T07:20:54.918Z,28.83
2022-08-18T07:22:59.845Z,29.34
2022-08-18T07:25:05.272Z,29.14
2022-08-18T07:27:06.604Z,29.02
2022-08-18T07:29:15.717Z,28.96
2022-08-18T07:31:21.163Z,28.93
2022-08-18T07:33:23.664Z,28.64
2022-08-18T07:35:31.868Z,28.54
2022-08-18T07:37:36.545Z,28.60
2022-08-18T07:39:47.223Z,28.95
2022-08-18T07:41:52.016Z,29.56
2022-08-18T07:43:58.212Z,30.33
2022-08-18T07:46:06.936Z,30.59
2022-08-18T07:48:40.018Z,30.95
2022-08-18T07:50:58.699Z,31.18
2022-08-18T07:53:15.133Z,31.49
2022-08-18T07:55:27.296Z,31.37
2022-08-18T07:57:42.342Z,31.10
2022-08-18T07:59:52.002Z,31.20
2022-08-18T08:01:56.688Z,31.08
2022-08-18T08:04:06.279Z,30.66
2022-08-18T08:06:14.051Z,30.29
2022-08-18T08:08:25.343Z,30.13
2022-08-18T08:10:35.330Z,29.92
2022-08-18T08:12:41.863Z,29.98
2022-08-18T08:14:43.433Z,30.23
2022-08-18T08:16:50.392Z,30.25
2022-08-18T08:19:01.044Z,30.32
2022-08-18T08:21:05.430Z,30.74
2022-08-18T08:23:17.930Z,31.03
2022-08-18T08:27:56.400Z,31.49
2022-08-18T08:30:03.913Z,31.55
2022-08-18T08:32:04.960Z,31.84
2022-08-18T08:34:10.827Z,31.87
2022-08-18T08:36:14.597Z,31.95
2022-08-18T08:38:40.178Z,32.27
2022-08-18T08:40:48.934Z,32.35
2022-08-18T08:42:56.213Z,32.92
2022-08-18T08:45:01.121Z,32.58
2022-08-18T08:47:04.329Z,33.53
2022-08-18T08:49:08.811Z,34.41
2022-08-18T08:51:30.123Z,35.66
2022-08-18T08:53:36.245Z,35.97
2022-08-18T08:55:38.137Z,36.15
2022-08-18T08:57:40.726Z,36.33
2022-08-18T08:59:41.049Z,36.90
2022-08-18T09:01:46.595Z,37.53
2022-08-18T09:03:50.773Z,37.57
2022-08-18T09:05:57.163Z,38.40
2022-08-18T09:08:21.444Z,38.46
2022-08-18T09:10:43.222Z,38.37
2022-08-18T09:13:00.572Z,39.35
2022-08-18T09:15:26.938Z,38.51
2022-08-18T09:17:47.573Z,39.43
2022-08-18T09:20:08.451Z,39.92
2022-08-18T09:22:15.922Z,39.04
2022-08-18T09:24:24.247Z,38.46
2022-08-18T09:26:41.962Z,37.97
2022-08-18T09:28:58.280Z,38.30
2022-08-18T09:31:20.073Z,38.69
2022-08-18T09:33:33.840Z,39.39
2022-08-18T09:35:52.084Z,39.64
2022-08-18T09:38:11.916Z,39.64
2022-08-18T09:40:51.433Z,39.10
2022-08-18T09:42:58.408Z,40.40
2022-08-18T09:45:10.732Z,40.66
2022-08-18T09:47:11.449Z,41.54
2022-08-18T09:52:55.121Z,40.09
2022-08-18T09:55:00.842Z,40.12
2022-08-18T09:57:24.513Z,39.80
2022-08-18T10:00:00.400Z,39.71
2022-08-18T10:01:58.667Z,41.06
2022-08-18T10:04:21.440Z,41.40
2022-08-18T10:06:23.866Z,40.74
2022-08-18T10:08:36.137Z,39.63
2022-08-18T10:11:00.418Z,39.02
2022-08-18T10:13:15.336Z,39.63
2022-08-18T10:15:48.863Z,40.37
2022-08-18T10:18:02.320Z,40.77
2022-08-18T10:20:26.046Z,40.93
2022-08-18T10:22:39.676Z,40.70
2022-08-18T10:24:46.164Z,40.13
2022-08-18T10:27:07.227Z,39.31
2022-08-18T10:29:07.253Z,40.30
2022-08-18T10:31:09.867Z,39.37
2022-08-18T10:33:17.890Z,39.07
2022-08-18T10:35:53.552Z,40.39
2022-08-18T10:37:53.876Z,40.04
2022-08-18T10:39:57.955Z,39.06
2022-08-18T10:42:06.405Z,39.36
2022-08-18T10:44:21.079Z,38.15
2022-08-18T10:46:31.919Z,37.53
2022-08-18T10:48:34.504Z,37.01
2022-08-18T10:50:39.437Z,36.99
2022-08-18T10:53:24.295Z,36.47
2022-08-18T10:55:48.155Z,36.53
2022-08-18T10:58:11.772Z,35.12
2022-08-18T11:00:13.836Z,35.14
2022-08-18T11:02:30.678Z,34.06
2022-08-18T11:04:33.539Z,33.61
2022-08-18T11:06:48.614Z,33.32
2022-08-18T11:08:54.789Z,33.29
2022-08-18T11:13:21.597Z,33.23
2022-08-18T11:15:24.306Z,33.35
2022-08-18T11:17:37.110Z,33.64
2022-08-18T11:19:41.901Z,33.61
2022-08-18T11:21:44.566Z,33.71
2022-08-18T11:23:42.957Z,33.31
2022-08-18T11:25:42.976Z,33.40
2022-08-18T11:27:47.363Z,33.36
2022-08-18T11:29:47.191Z,33.43
2022-08-18T11:32:29.957Z,33.38
2022-08-18T11:34:38.508Z,33.62
2022-08-18T11:36:39.517Z,33.93
2022-08-18T11:38:56.086Z,33.67
2022-08-18T11:41:13.643Z,33.79
2022-08-18T11:43:15.746Z,33.62
2022-08-18T11:45:23.483Z,33.64
2022-08-18T11:47:27.772Z,33.14
2022-08-18T11:49:34.353Z,32.57
2022-08-18T11:51:34.509Z,32.36
2022-08-18T11:53:42.997Z,32.16
2022-08-18T11:55:48.276Z,32.34
2022-08-18T12:00:51.082Z,33.40
2022-08-18T12:02:50.383Z,33.73
2022-08-18T12:04:53.819Z,33.94
2022-08-18T12:07:04.737Z,33.91
2022-08-18T12:09:07.111Z,34.05
2022-08-18T12:11:27.482Z,33.89
2022-08-18T12:13:27.102Z,33.92
2022-08-18T12:15:44.382Z,33.84
2022-08-18T12:17:52.176Z,33.89
2022-08-18T12:19:53.117Z,33.82
2022-08-18T12:21:54.904Z,33.93
2022-08-18T12:23:53.900Z,33.71
2022-08-18T12:25:52.261Z,33.78
2022-08-18T12:27:50.617Z,33.87
2022-08-18T12:29:49.435Z,33.74
2022-08-18T12:31:50.289Z,33.77
2022-08-18T12:34:00.708Z,33.49
2022-08-18T12:36:00.951Z,33.10
2022-08-18T12:38:08.261Z,32.95
2022-08-18T12:40:13.752Z,32.94
2022-08-18T12:42:13.748Z,33.11
2022-08-18T12:44:13.242Z,33.18
2022-08-18T12:46:12.097Z,33.25
2022-08-18T12:48:12.454Z,33.17
2022-08-18T12:50:12.538Z,33.17
2022-08-18T12:52:12.840Z,33.06
2022-08-18T12:54:12.785Z,32.94
2022-08-18T12:56:22.395Z,32.90
2022-08-18T12:58:20.613Z,33.00
2022-08-18T13:02:45.741Z,33.17
2022-08-18T13:04:44.338Z,33.17
2022-08-18T13:07:00.228Z,33.04
2022-08-18T13:09:01.926Z,32.89
2022-08-18T13:11:14.983Z,32.65
2022-08-18T13:13:21.980Z,32.65
2022-08-18T13:15:28.476Z,32.67
2022-08-18T13:17:30.223Z,32.64
2022-08-18T13:19:33.399Z,32.62
2022-08-18T13:21:38.981Z,32.76
2022-08-18T13:23:40.511Z,32.77
2022-08-18T13:25:43.002Z,32.84
2022-08-18T13:27:46.316Z,32.76
2022-08-18T13:29:44.660Z,32.65
2022-08-18T13:31:55.449Z,32.73
2022-08-18T13:33:58.018Z,32.74
2022-08-18T13:35:58.356Z,32.74
2022-08-18T13:37:57.265Z,32.72
2022-08-18T13:39:55.804Z,32.64
2022-08-18T13:41:57.038Z,32.66
2022-08-18T13:44:00.930Z,32.68
2022-08-18T13:45:59.895Z,32.71
2022-08-18T13:47:59.620Z,32.58
2022-08-18T13:50:01.126Z,32.33
2022-08-18T13:52:05.420Z,32.28
2022-08-18T13:54:53.421Z,32.37
2022-08-18T13:56:53.617Z,32.40
2022-08-18T13:58:57.947Z,32.48
2022-08-18T14:03:42.830Z,32.27
2022-08-18T14:05:51.372Z,32.31
2022-08-18T14:07:50.986Z,32.23
2022-08-18T14:09:51.816Z,32.25
2022-08-18T14:11:51.185Z,32.30
2022-08-18T14:13:49.921Z,32.25
2022-08-18T14:15:53.582Z,32.30
2022-08-18T14:17:52.495Z,32.39
2022-08-18T14:20:21.358Z,32.43
2022-08-18T14:22:37.916Z,32.41
2022-08-18T14:24:54.322Z,32.41
2022-08-18T14:26:54.381Z,32.45
2022-08-18T14:28:54.780Z,32.46
2022-08-18T14:30:55.374Z,32.29
2022-08-18T14:32:54.526Z,32.27
2022-08-18T14:34:59.817Z,32.22
2022-08-18T14:36:59.144Z,32.21
2022-08-18T14:38:57.755Z,32.19
2022-08-18T14:40:56.534Z,32.03
2022-08-18T14:42:56.329Z,31.90
2022-08-18T14:45:17.482Z,31.85
2022-08-18T14:47:17.459Z,31.80
2022-08-18T14:49:29.037Z,31.84
2022-08-18T14:51:27.958Z,31.98
2022-08-18T14:53:31.604Z,32.13
2022-08-18T14:55:32.988Z,32.06
2022-08-18T14:57:32.641Z,32.04
2022-08-18T14:59:34.512Z,32.04
2022-08-18T15:01:36.937Z,32.00
2022-08-18T15:03:42.528Z,31.88
2022-08-18T15:05:41.005Z,31.78
2022-08-18T15:07:51.626Z,31.67
2022-08-18T15:09:49.963Z,31.65
2022-08-18T15:12:08.930Z,31.55
2022-08-18T15:14:14.214Z,31.48
2022-08-18T15:16:14.616Z,31.49
2022-08-18T15:18:13.166Z,31.49
2022-08-18T15:20:13.393Z,31.52
2022-08-18T15:22:29.446Z,31.57
2022-08-18T15:24:48.257Z,31.55
2022-08-18T15:26:51.678Z,31.56
2022-08-18T15:28:55.370Z,31.54
2022-08-18T15:33:18.497Z,31.50
2022-08-18T15:35:23.322Z,31.61
2022-08-18T15:37:24.091Z,31.81
2022-08-18T15:39:22.795Z,31.75
2022-08-18T15:41:31.206Z,31.70
2022-08-18T15:43:32.603Z,31.63
2022-08-18T15:45:37.852Z,31.40
2022-08-18T15:47:42.223Z,31.40
2022-08-18T15:49:40.342Z,31.21
2022-08-18T15:51:42.368Z,31.09
2022-08-18T15:53:45.023Z,30.99
2022-08-18T15:55:44.129Z,30.87
2022-08-18T15:57:42.500Z,30.83
2022-08-18T15:59:40.794Z,30.81
2022-08-18T16:01:42.417Z,30.67
2022-08-18T16:03:42.331Z,30.63
2022-08-18T16:05:52.689Z,30.57
2022-08-18T16:07:54.060Z,30.48
2022-08-18T16:09:52.573Z,30.40
2022-08-18T16:11:50.883Z,30.36
2022-08-18T16:13:50.651Z,30.32
2022-08-18T16:15:50.017Z,30.30
2022-08-18T16:17:48.656Z,30.25
2022-08-18T16:19:47.183Z,30.17
2022-08-18T16:21:47.663Z,30.19
2022-08-18T16:23:49.748Z,30.12
2022-08-18T16:25:48.052Z,30.07
2022-08-18T16:27:48.044Z,30.02
2022-08-18T16:29:46.691Z,29.98
2022-08-18T16:31:45.421Z,29.97
2022-08-18T16:33:44.530Z,29.91
2022-08-18T16:35:45.329Z,29.80
2022-08-18T16:37:44.446Z,29.73
2022-08-18T16:39:44.492Z,29.67
2022-08-18T16:41:43.013Z,29.59
2022-08-18T16:43:41.489Z,29.55
2022-08-18T16:45:42.494Z,29.50
2022-08-18T16:47:41.727Z,29.48
2022-08-18T16:49:40.149Z,29.42
2022-08-18T16:51:39.118Z,29.37
2022-08-18T16:53:40.030Z,29.33
2022-08-18T16:55:40.306Z,29.26
2022-08-18T16:57:58.511Z,29.23
2022-08-18T17:00:14.278Z,29.16
2022-08-18T17:02:30.229Z,29.08
2022-08-18T17:04:33.703Z,28.97
2022-08-18T17:06:31.763Z,28.89
2022-08-18T17:08:34.345Z,28.80
2022-08-18T17:10:37.979Z,28.73
2022-08-18T17:12:37.430Z,28.62
2022-08-18T17:14:36.964Z,28.53
2022-08-18T17:16:36.934Z,28.46
2022-08-18T17:18:36.150Z,28.39
2022-08-18T17:20:36.626Z,28.29
2022-08-18T17:22:34.925Z,28.19
2022-08-18T17:24:33.381Z,28.14
2022-08-18T17:26:41.345Z,28.10
2022-08-18T17:28:50.148Z,27.99
2022-08-18T17:30:52.920Z,27.89
2022-08-18T17:32:54.630Z,27.82
2022-08-18T17:34:59.488Z,27.75
2022-08-18T17:36:59.573Z,27.71
2022-08-18T17:39:01.143Z,27.64
2022-08-18T17:40:59.962Z,27.58
2022-08-18T17:43:01.737Z,27.53
2022-08-18T17:45:05.571Z,27.46
2022-08-18T17:47:06.224Z,27.40
2022-08-18T17:49:11.861Z,27.40
2022-08-18T17:51:32.679Z,27.33
2022-08-18T17:53:33.448Z,27.23
2022-08-18T17:55:41.874Z,27.11
2022-08-18T17:57:58.453Z,27.05
2022-08-18T18:11:51.261Z,26.71
2022-08-18T18:16:28.030Z,26.63
2022-08-18T18:18:36.029Z,26.61
2022-08-18T18:20:38.233Z,26.61
2022-08-18T18:22:37.980Z,26.58
2022-08-18T18:24:39.296Z,26.57
2022-08-18T18:26:40.708Z,26.55
2022-08-18T18:31:17.903Z,26.42
2022-08-18T18:40:29.706Z,26.11
2022-08-18T18:47:16.697Z,25.90
2022-08-18T18:56:56.820Z,25.75
2022-08-18T19:09:02.674Z,25.57
2022-08-18T19:13:35.022Z,25.59
2022-08-18T19:15:38.546Z,25.53
2022-08-18T19:17:53.970Z,25.51
2022-08-18T19:20:07.622Z,25.41
2022-08-18T19:22:11.372Z,25.30
2022-08-18T19:29:28.430Z,25.25
2022-08-18T19:31:32.628Z,25.26
2022-08-18T19:33:48.359Z,25.25
2022-08-18T19:35:59.002Z,25.23
2022-08-18T19:38:09.739Z,25.25
2022-08-18T19:40:14.487Z,25.19
2022-08-18T19:42:22.320Z,25.23
2022-08-18T19:44:33.786Z,25.18
2022-08-18T19:46:37.982Z,25.08
2022-08-18T19:48:41.929Z,25.08
2022-08-18T19:50:47.801Z,24.97
2022-08-18T19:53:04.873Z,24.97
2022-08-18T19:55:19.807Z,24.88
2022-08-18T19:57:34.742Z,24.84
2022-08-18T19:59:51.898Z,24.81
2022-08-18T20:02:02.139Z,24.76
2022-08-18T20:04:13.343Z,24.74
2022-08-18T20:06:34.812Z,24.69
2022-08-18T20:09:03.708Z,24.65
2022-08-18T20:11:41.135Z,24.68
2022-08-18T20:13:43.587Z,24.62
2022-08-18T20:16:01.110Z,24.59
2022-08-18T20:18:07.860Z,24.57
2022-08-18T20:20:18.419Z,24.52
2022-08-18T20:22:34.125Z,24.49
2022-08-18T20:24:50.362Z,24.45
2022-08-18T20:26:51.169Z,24.42
2022-08-18T20:28:50.581Z,24.41
2022-08-18T20:31:06.757Z,24.38
2022-08-18T20:33:20.034Z,24.32
2022-08-18T20:35:22.746Z,24.29
2022-08-18T20:37:27.313Z,24.27
2022-08-18T20:39:40.557Z,24.27
2022-08-18T20:41:44.461Z,24.26
2022-08-18T20:43:44.343Z,24.15
2022-08-18T20:45:45.975Z,24.11
2022-08-18T20:47:58.302Z,24.08
2022-08-18T20:50:13.968Z,23.98
2022-08-18T20:52:29.299Z,23.95
2022-08-18T20:54:57.403Z,24.03
2022-08-18T20:57:00.367Z,24.00
2022-08-18T20:59:08.856Z,24.01
2022-08-18T21:01:07.578Z,23.94
2022-08-18T21:03:12.905Z,23.88
2022-08-18T21:05:16.783Z,23.89
2022-08-18T21:07:36.500Z,23.81
2022-08-18T21:09:35.941Z,23.74
2022-08-18T21:11:41.338Z,23.71
2022-08-18T21:13:51.472Z,23.66
2022-08-18T21:15:56.271Z,23.57
2022-08-18T21:18:02.502Z,23.72
2022-08-18T21:20:03.602Z,23.73
2022-08-18T21:22:04.816Z,23.65
2022-08-18T21:24:05.141Z,23.58
2022-08-18T21:26:08.734Z,23.54
2022-08-18T21:28:07.563Z,23.52
2022-08-18T21:30:09.965Z,23.55
2022-08-18T21:32:13.217Z,23.60
2022-08-18T21:34:14.630Z,23.57
2022-08-18T21:36:13.578Z,23.46
2022-08-18T21:38:13.485Z,23.41
2022-08-18T21:40:12.782Z,23.31
2022-08-18T21:42:20.576Z,23.16
2022-08-18T21:44:23.236Z,23.09
2022-08-18T21:46:27.321Z,23.02
2022-08-18T21:48:28.752Z,22.94
2022-08-18T21:50:29.090Z,22.95
2022-08-18T21:52:30.045Z,23.01
2022-08-18T21:54:34.542Z,23.07
2022-08-18T21:56:35.482Z,23.05
2022-08-18T21:58:41.093Z,23.08
2022-08-18T22:00:42.197Z,23.05
2022-08-18T22:02:41.366Z,23.00
2022-08-18T22:04:48.282Z,22.95
2022-08-18T22:06:51.500Z,22.96
2022-08-18T22:08:52.527Z,22.86
2022-08-18T22:11:51.997Z,22.68
2022-08-18T22:14:02.043Z,22.71
2022-08-18T22:16:22.965Z,22.73
2022-08-18T22:18:36.442Z,22.74
2022-08-18T22:20:43.613Z,22.65
2022-08-18T22:22:59.349Z,22.63
2022-08-18T22:24:59.590Z,22.55
2022-08-18T22:27:08.748Z,22.57
2022-08-18T22:29:14.874Z,22.49
2022-08-18T22:31:18.137Z,22.43
2022-08-18T22:33:19.091Z,22.43
2022-08-18T22:35:17.724Z,22.38
2022-08-18T22:37:20.929Z,22.31
2022-08-18T22:39:24.737Z,22.30
2022-08-18T22:41:23.205Z,22.33
2022-08-18T22:43:22.068Z,22.28
2022-08-18T22:45:21.416Z,22.12
2022-08-18T22:47:20.198Z,22.17
2022-08-18T22:49:19.145Z,22.25
2022-08-18T22:51:19.460Z,22.23
2022-08-18T22:53:19.560Z,22.23
2022-08-18T22:55:20.876Z,22.20
2022-08-18T22:57:23.644Z,22.14
2022-08-18T22:59:22.382Z,22.18
2022-08-18T23:01:19.602Z,22.14
2022-08-18T23:03:17.913Z,22.12
2022-08-18T23:05:16.637Z,21.96
2022-08-18T23:07:15.671Z,21.81
2022-08-18T23:09:15.360Z,21.73
2022-08-18T23:11:14.541Z,21.71
2022-08-18T23:13:12.820Z,21.61
2022-08-18T23:15:12.329Z,21.68
2022-08-18T23:17:10.536Z,21.78
2022-08-18T23:19:08.777Z,21.94
2022-08-18T23:21:07.469Z,21.88
2022-08-18T23:23:05.771Z,21.98
2022-08-18T23:25:09.119Z,21.99
2022-08-18T23:27:08.856Z,22.04
2022-08-18T23:29:09.424Z,21.99
2022-08-18T23:31:07.555Z,21.84
2022-08-18T23:33:06.831Z,21.71
2022-08-18T23:35:05.758Z,21.77
2022-08-18T23:37:05.361Z,21.81
2022-08-18T23:39:03.674Z,21.85
2022-08-18T23:41:03.314Z,21.86
2022-08-18T23:43:01.579Z,21.88
2022-08-18T23:45:03.904Z,21.93
2022-08-18T23:47:02.681Z,21.98
2022-08-18T23:49:03.267Z,21.97
2022-08-18T23:51:03.177Z,21.98
2022-08-18T23:53:02.967Z,22.03
2022-08-18T23:55:05.294Z,22.03
2022-08-18T23:57:05.051Z,22.00
2022-08-18T23:59:06.355Z,21.90
